sensor_id;sensor_type;location;lat;lon;timestamp;P1;durP1;ratioP1;P2;durP2;ratioP2
42036;SDS011;30340;52.004;5.908;2023-04-01T00:00:16;3.90;;;2.00;;
42036;SDS011;30340;52.004;5.908;2023-04-01T00:02:42;4.28;;;2.50;;
42036;SDS011;30340;52.004;5.908;2023-04-01T00:05:08;4.80;;;2.58;;
42036;SDS011;30340;52.004;5.908;2023-04-01T00:07:35;4.95;;;2.85;;
42036;SDS011;30340;52.004;5.908;2023-04-01T00:10:02;6.88;;;2.65;;
42036;SDS011;30340;52.004;5.908;2023-04-01T00:12:28;4.32;;;2.30;;
42036;SDS011;30340;52.004;5.908;2023-04-01T00:14:54;5.90;;;2.90;;
42036;SDS011;30340;52.004;5.908;2023-04-01T00:17:20;4.82;;;2.70;;
42036;SDS011;30340;52.004;5.908;2023-04-01T00:19:46;4.28;;;2.42;;
42036;SDS011;30340;52.004;5.908;2023-04-01T00:22:12;3.97;;;2.03;;
42036;SDS011;30340;52.004;5.908;2023-04-01T00:24:38;5.65;;;2.90;;
42036;SDS011;30340;52.004;5.908;2023-04-01T00:27:03;3.30;;;2.20;;
42036;SDS011;30340;52.004;5.908;2023-04-01T00:29:29;3.63;;;2.42;;
42036;SDS011;30340;52.004;5.908;2023-04-01T00:31:56;4.43;;;2.67;;
42036;SDS011;30340;52.004;5.908;2023-04-01T00:34:22;3.75;;;2.30;;
42036;SDS011;30340;52.004;5.908;2023-04-01T00:36:49;3.28;;;2.40;;
42036;SDS011;30340;52.004;5.908;2023-04-01T00:39:15;4.13;;;2.85;;
42036;SDS011;30340;52.004;5.908;2023-04-01T00:41:41;4.45;;;3.45;;
42036;SDS011;30340;52.004;5.908;2023-04-01T00:46:46;5.32;;;3.90;;
42036;SDS011;30340;52.004;5.908;2023-04-01T00:49:12;5.60;;;3.50;;
42036;SDS011;30340;52.004;5.908;2023-04-01T00:51:39;5.60;;;4.07;;
42036;SDS011;30340;52.004;5.908;2023-04-01T00:54:06;5.10;;;4.40;;
42036;SDS011;30340;52.004;5.908;2023-04-01T00:56:39;6.40;;;4.28;;
42036;SDS011;30340;52.004;5.908;2023-04-01T00:59:11;4.72;;;3.60;;
42036;SDS011;30340;52.004;5.908;2023-04-01T01:01:45;5.53;;;3.97;;
42036;SDS011;30340;52.004;5.908;2023-04-01T01:04:21;5.40;;;4.20;;
42036;SDS011;30340;52.004;5.908;2023-04-01T01:10:02;8.95;;;5.35;;
42036;SDS011;30340;52.004;5.908;2023-04-01T01:15:12;7.80;;;6.43;;
42036;SDS011;30340;52.004;5.908;2023-04-01T01:31:44;9.45;;;7.50;;
42036;SDS011;30340;52.004;5.908;2023-04-01T01:34:23;7.85;;;7.05;;
42036;SDS011;30340;52.004;5.908;2023-04-01T01:36:59;9.02;;;6.88;;
42036;SDS011;30340;52.004;5.908;2023-04-01T01:39:30;8.82;;;5.97;;
42036;SDS011;30340;52.004;5.908;2023-04-01T01:42:01;8.17;;;6.27;;
42036;SDS011;30340;52.004;5.908;2023-04-01T01:44:30;9.97;;;6.43;;
42036;SDS011;30340;52.004;5.908;2023-04-01T01:46:58;10.70;;;8.23;;
42036;SDS011;30340;52.004;5.908;2023-04-01T01:49:25;9.25;;;7.20;;
42036;SDS011;30340;52.004;5.908;2023-04-01T01:51:52;8.60;;;6.97;;
42036;SDS011;30340;52.004;5.908;2023-04-01T01:54:18;10.50;;;6.80;;
42036;SDS011;30340;52.004;5.908;2023-04-01T01:56:45;8.63;;;6.20;;
42036;SDS011;30340;52.004;5.908;2023-04-01T01:59:14;8.45;;;5.85;;
42036;SDS011;30340;52.004;5.908;2023-04-01T02:01:42;7.63;;;5.25;;
42036;SDS011;30340;52.004;5.908;2023-04-01T02:04:10;7.53;;;5.13;;
42036;SDS011;30340;52.004;5.908;2023-04-01T02:06:40;11.25;;;6.88;;
42036;SDS011;30340;52.004;5.908;2023-04-01T02:09:10;12.98;;;7.32;;
42036;SDS011;30340;52.004;5.908;2023-04-01T02:11:43;12.23;;;6.50;;
42036;SDS011;30340;52.004;5.908;2023-04-01T02:14:15;10.75;;;6.78;;
42036;SDS011;30340;52.004;5.908;2023-04-01T02:17:02;10.77;;;6.03;;
42036;SDS011;30340;52.004;5.908;2023-04-01T02:19:32;13.00;;;7.00;;
42036;SDS011;30340;52.004;5.908;2023-04-01T02:22:06;12.23;;;6.38;;
42036;SDS011;30340;52.004;5.908;2023-04-01T02:24:36;13.75;;;6.45;;
42036;SDS011;30340;52.004;5.908;2023-04-01T02:27:05;13.07;;;6.72;;
42036;SDS011;30340;52.004;5.908;2023-04-01T02:29:31;12.88;;;6.20;;
42036;SDS011;30340;52.004;5.908;2023-04-01T02:31:57;10.65;;;5.78;;
42036;SDS011;30340;52.004;5.908;2023-04-01T02:34:23;8.27;;;4.63;;
42036;SDS011;30340;52.004;5.908;2023-04-01T02:36:50;14.45;;;5.57;;
42036;SDS011;30340;52.004;5.908;2023-04-01T02:39:16;8.52;;;4.38;;
42036;SDS011;30340;52.004;5.908;2023-04-01T02:41:43;8.75;;;4.65;;
42036;SDS011;30340;52.004;5.908;2023-04-01T02:44:11;8.35;;;4.45;;
42036;SDS011;30340;52.004;5.908;2023-04-01T02:46:37;8.50;;;4.57;;
42036;SDS011;30340;52.004;5.908;2023-04-01T02:49:03;9.52;;;4.80;;
42036;SDS011;30340;52.004;5.908;2023-04-01T02:51:30;7.55;;;3.83;;
42036;SDS011;30340;52.004;5.908;2023-04-01T02:53:55;8.88;;;4.07;;
42036;SDS011;30340;52.004;5.908;2023-04-01T02:56:21;6.82;;;3.90;;
42036;SDS011;30340;52.004;5.908;2023-04-01T02:58:47;6.95;;;3.47;;
42036;SDS011;30340;52.004;5.908;2023-04-01T03:01:13;7.35;;;3.72;;
42036;SDS011;30340;52.004;5.908;2023-04-01T03:03:38;7.63;;;4.53;;
42036;SDS011;30340;52.004;5.908;2023-04-01T03:06:05;4.85;;;3.40;;
42036;SDS011;30340;52.004;5.908;2023-04-01T03:08:31;7.88;;;4.10;;
42036;SDS011;30340;52.004;5.908;2023-04-01T03:10:56;5.30;;;3.20;;
42036;SDS011;30340;52.004;5.908;2023-04-01T03:13:22;5.30;;;3.35;;
42036;SDS011;30340;52.004;5.908;2023-04-01T03:15:48;4.50;;;3.40;;
42036;SDS011;30340;52.004;5.908;2023-04-01T03:18:13;4.60;;;3.40;;
42036;SDS011;30340;52.004;5.908;2023-04-01T03:20:39;4.07;;;3.25;;
42036;SDS011;30340;52.004;5.908;2023-04-01T03:23:04;4.43;;;3.50;;
42036;SDS011;30340;52.004;5.908;2023-04-01T03:25:30;5.57;;;4.40;;
42036;SDS011;30340;52.004;5.908;2023-04-01T03:27:56;5.65;;;3.90;;
42036;SDS011;30340;52.004;5.908;2023-04-01T03:30:24;4.95;;;4.20;;
42036;SDS011;30340;52.004;5.908;2023-04-01T03:32:50;4.30;;;3.75;;
42036;SDS011;30340;52.004;5.908;2023-04-01T03:35:15;5.30;;;4.30;;
42036;SDS011;30340;52.004;5.908;2023-04-01T03:37:41;5.10;;;3.90;;
42036;SDS011;30340;52.004;5.908;2023-04-01T03:40:06;5.30;;;4.20;;
42036;SDS011;30340;52.004;5.908;2023-04-01T03:42:33;4.60;;;4.00;;
42036;SDS011;30340;52.004;5.908;2023-04-01T03:44:58;4.18;;;3.63;;
42036;SDS011;30340;52.004;5.908;2023-04-01T03:47:24;4.75;;;3.95;;
42036;SDS011;30340;52.004;5.908;2023-04-01T03:49:50;5.28;;;3.83;;
42036;SDS011;30340;52.004;5.908;2023-04-01T03:52:15;5.82;;;4.53;;
42036;SDS011;30340;52.004;5.908;2023-04-01T03:54:41;6.15;;;4.57;;
42036;SDS011;30340;52.004;5.908;2023-04-01T03:57:06;4.90;;;4.00;;
42036;SDS011;30340;52.004;5.908;2023-04-01T03:59:32;6.40;;;4.70;;
42036;SDS011;30340;52.004;5.908;2023-04-01T04:01:58;7.28;;;4.90;;
42036;SDS011;30340;52.004;5.908;2023-04-01T04:04:23;8.57;;;6.85;;
42036;SDS011;30340;52.004;5.908;2023-04-01T04:06:49;6.28;;;5.32;;
42036;SDS011;30340;52.004;5.908;2023-04-01T04:09:15;6.30;;;5.40;;
42036;SDS011;30340;52.004;5.908;2023-04-01T04:11:41;5.35;;;4.30;;
42036;SDS011;30340;52.004;5.908;2023-04-01T04:14:06;5.60;;;5.00;;
42036;SDS011;30340;52.004;5.908;2023-04-01T04:16:34;4.78;;;4.00;;
42036;SDS011;30340;52.004;5.908;2023-04-01T04:19:01;4.68;;;4.00;;
42036;SDS011;30340;52.004;5.908;2023-04-01T04:21:27;5.40;;;4.13;;
42036;SDS011;30340;52.004;5.908;2023-04-01T04:23:53;4.97;;;4.05;;
42036;SDS011;30340;52.004;5.908;2023-04-01T04:26:18;5.88;;;4.93;;
42036;SDS011;30340;52.004;5.908;2023-04-01T04:28:44;4.93;;;3.85;;
42036;SDS011;30340;52.004;5.908;2023-04-01T04:31:09;4.53;;;4.00;;
42036;SDS011;30340;52.004;5.908;2023-04-01T04:33:35;6.28;;;4.32;;
42036;SDS011;30340;52.004;5.908;2023-04-01T04:36:01;5.75;;;4.70;;
42036;SDS011;30340;52.004;5.908;2023-04-01T04:38:27;5.28;;;4.05;;
42036;SDS011;30340;52.004;5.908;2023-04-01T04:40:53;4.65;;;4.07;;
42036;SDS011;30340;52.004;5.908;2023-04-01T04:43:20;4.32;;;3.67;;
42036;SDS011;30340;52.004;5.908;2023-04-01T04:45:45;5.38;;;3.88;;
42036;SDS011;30340;52.004;5.908;2023-04-01T04:48:12;4.35;;;3.95;;
42036;SDS011;30340;52.004;5.908;2023-04-01T04:50:43;4.38;;;3.95;;
42036;SDS011;30340;52.004;5.908;2023-04-01T04:53:13;4.80;;;3.90;;
42036;SDS011;30340;52.004;5.908;2023-04-01T04:55:44;4.32;;;3.92;;
42036;SDS011;30340;52.004;5.908;2023-04-01T04:58:14;4.93;;;3.83;;
42036;SDS011;30340;52.004;5.908;2023-04-01T05:00:40;3.38;;;3.08;;
42036;SDS011;30340;52.004;5.908;2023-04-01T05:03:07;4.18;;;3.78;;
42036;SDS011;30340;52.004;5.908;2023-04-01T05:05:32;3.10;;;2.80;;
42036;SDS011;30340;52.004;5.908;2023-04-01T05:07:58;3.40;;;3.10;;
42036;SDS011;30340;52.004;5.908;2023-04-01T05:10:24;3.70;;;3.40;;
42036;SDS011;30340;52.004;5.908;2023-04-01T05:12:50;3.40;;;3.10;;
42036;SDS011;30340;52.004;5.908;2023-04-01T05:15:15;3.75;;;3.40;;
42036;SDS011;30340;52.004;5.908;2023-04-01T05:17:41;2.92;;;2.55;;
42036;SDS011;30340;52.004;5.908;2023-04-01T05:20:06;3.85;;;3.45;;
42036;SDS011;30340;52.004;5.908;2023-04-01T05:22:32;3.20;;;2.90;;
42036;SDS011;30340;52.004;5.908;2023-04-01T05:24:58;3.58;;;3.10;;
42036;SDS011;30340;52.004;5.908;2023-04-01T05:27:23;3.13;;;2.83;;
42036;SDS011;30340;52.004;5.908;2023-04-01T05:29:49;2.90;;;2.70;;
42036;SDS011;30340;52.004;5.908;2023-04-01T05:32:15;3.88;;;3.47;;
42036;SDS011;30340;52.004;5.908;2023-04-01T05:34:40;2.83;;;2.58;;
42036;SDS011;30340;52.004;5.908;2023-04-01T05:37:06;2.65;;;2.45;;
42036;SDS011;30340;52.004;5.908;2023-04-01T05:39:35;2.90;;;2.60;;
42036;SDS011;30340;52.004;5.908;2023-04-01T05:44:33;3.60;;;3.13;;
42036;SDS011;30340;52.004;5.908;2023-04-01T05:46:59;3.83;;;3.40;;
42036;SDS011;30340;52.004;5.908;2023-04-01T05:49:24;3.72;;;3.33;;
42036;SDS011;30340;52.004;5.908;2023-04-01T05:51:50;3.60;;;3.22;;
42036;SDS011;30340;52.004;5.908;2023-04-01T05:54:16;5.13;;;4.22;;
42036;SDS011;30340;52.004;5.908;2023-04-01T05:56:42;4.65;;;3.85;;
42036;SDS011;30340;52.004;5.908;2023-04-01T05:59:09;4.53;;;3.80;;
42036;SDS011;30340;52.004;5.908;2023-04-01T06:01:35;6.63;;;4.78;;
42036;SDS011;30340;52.004;5.908;2023-04-01T06:04:01;6.93;;;5.10;;
42036;SDS011;30340;52.004;5.908;2023-04-01T06:06:28;6.80;;;5.30;;
42036;SDS011;30340;52.004;5.908;2023-04-01T06:08:55;6.65;;;5.22;;
42036;SDS011;30340;52.004;5.908;2023-04-01T06:30:58;14.68;;;7.97;;
42036;SDS011;30340;52.004;5.908;2023-04-01T06:44:04;14.40;;;8.43;;
42036;SDS011;30340;52.004;5.908;2023-04-01T06:47:02;14.18;;;7.93;;
42036;SDS011;30340;52.004;5.908;2023-04-01T06:50:04;12.52;;;6.93;;
42036;SDS011;30340;52.004;5.908;2023-04-01T06:55:51;10.80;;;6.18;;
42036;SDS011;30340;52.004;5.908;2023-04-01T06:58:36;10.90;;;6.28;;
42036;SDS011;30340;52.004;5.908;2023-04-01T07:01:07;8.00;;;4.93;;
42036;SDS011;30340;52.004;5.908;2023-04-01T07:06:10;7.93;;;5.18;;
42036;SDS011;30340;52.004;5.908;2023-04-01T07:08:41;8.95;;;5.22;;
42036;SDS011;30340;52.004;5.908;2023-04-01T07:11:09;6.65;;;4.57;;
42036;SDS011;30340;52.004;5.908;2023-04-01T07:14:00;8.27;;;4.70;;
42036;SDS011;30340;52.004;5.908;2023-04-01T07:16:48;6.07;;;4.18;;
42036;SDS011;30340;52.004;5.908;2023-04-01T07:19:29;6.57;;;3.90;;
42036;SDS011;30340;52.004;5.908;2023-04-01T07:24:55;4.45;;;3.25;;
42036;SDS011;30340;52.004;5.908;2023-04-01T07:27:23;4.50;;;3.03;;
42036;SDS011;30340;52.004;5.908;2023-04-01T07:29:48;4.00;;;3.00;;
42036;SDS011;30340;52.004;5.908;2023-04-01T07:32:16;3.60;;;2.58;;
42036;SDS011;30340;52.004;5.908;2023-04-01T07:34:50;3.67;;;2.60;;
42036;SDS011;30340;52.004;5.908;2023-04-01T07:37:20;3.05;;;2.25;;
42036;SDS011;30340;52.004;5.908;2023-04-01T07:45:30;3.47;;;2.50;;
42036;SDS011;30340;52.004;5.908;2023-04-01T07:48:07;2.65;;;2.20;;
42036;SDS011;30340;52.004;5.908;2023-04-01T07:50:40;2.85;;;2.20;;
42036;SDS011;30340;52.004;5.908;2023-04-01T07:53:26;2.50;;;2.10;;
42036;SDS011;30340;52.004;5.908;2023-04-01T08:01:27;2.72;;;2.00;;
42036;SDS011;30340;52.004;5.908;2023-04-01T08:04:09;4.28;;;2.55;;
42036;SDS011;30340;52.004;5.908;2023-04-01T08:09:32;3.80;;;2.50;;
42036;SDS011;30340;52.004;5.908;2023-04-01T08:12:22;3.53;;;2.78;;
42036;SDS011;30340;52.004;5.908;2023-04-01T08:23:44;3.10;;;2.35;;
42036;SDS011;30340;52.004;5.908;2023-04-01T08:26:30;2.70;;;2.30;;
42036;SDS011;30340;52.004;5.908;2023-04-01T08:29:15;5.17;;;4.67;;
42036;SDS011;30340;52.004;5.908;2023-04-01T08:32:00;4.70;;;3.67;;
42036;SDS011;30340;52.004;5.908;2023-04-01T08:34:38;3.05;;;2.60;;
42036;SDS011;30340;52.004;5.908;2023-04-01T08:37:14;3.60;;;2.78;;
42036;SDS011;30340;52.004;5.908;2023-04-01T08:39:48;3.65;;;3.25;;
42036;SDS011;30340;52.004;5.908;2023-04-01T08:42:27;3.47;;;2.50;;
42036;SDS011;30340;52.004;5.908;2023-04-01T08:45:18;3.00;;;2.70;;
42036;SDS011;30340;52.004;5.908;2023-04-01T08:56:17;1.20;;;1.10;;
42036;SDS011;30340;52.004;5.908;2023-04-01T08:58:55;2.20;;;2.00;;
42036;SDS011;30340;52.004;5.908;2023-04-01T09:16:02;1.08;;;0.98;;
42036;SDS011;30340;52.004;5.908;2023-04-01T09:21:32;1.15;;;1.05;;
42036;SDS011;30340;52.004;5.908;2023-04-01T09:27:26;1.10;;;1.10;;
42036;SDS011;30340;52.004;5.908;2023-04-01T09:36:12;2.60;;;2.40;;
42036;SDS011;30340;52.004;5.908;2023-04-01T09:38:57;2.67;;;1.85;;
42036;SDS011;30340;52.004;5.908;2023-04-01T09:44:22;3.03;;;2.80;;
42036;SDS011;30340;52.004;5.908;2023-04-01T09:47:09;3.25;;;2.00;;
42036;SDS011;30340;52.004;5.908;2023-04-01T09:52:54;1.58;;;1.48;;
42036;SDS011;30340;52.004;5.908;2023-04-01T10:05:04;2.10;;;1.67;;
42036;SDS011;30340;52.004;5.908;2023-04-01T10:12:46;2.55;;;2.25;;
42036;SDS011;30340;52.004;5.908;2023-04-01T10:24:14;4.55;;;2.60;;
42036;SDS011;30340;52.004;5.908;2023-04-01T10:29:38;3.50;;;2.70;;
42036;SDS011;30340;52.004;5.908;2023-04-01T10:35:02;3.38;;;2.90;;
42036;SDS011;30340;52.004;5.908;2023-04-01T10:43:20;3.30;;;2.90;;
42036;SDS011;30340;52.004;5.908;2023-04-01T10:46:17;3.85;;;2.85;;
42036;SDS011;30340;52.004;5.908;2023-04-01T10:48:53;3.90;;;2.80;;
42036;SDS011;30340;52.004;5.908;2023-04-01T11:03:04;6.20;;;4.78;;
42036;SDS011;30340;52.004;5.908;2023-04-01T11:11:52;6.32;;;5.28;;
42036;SDS011;30340;52.004;5.908;2023-04-01T11:17:29;5.07;;;4.38;;
42036;SDS011;30340;52.004;5.908;2023-04-01T11:31:43;1.33;;;1.20;;
42036;SDS011;30340;52.004;5.908;2023-04-01T11:34:26;2.13;;;1.17;;
42036;SDS011;30340;52.004;5.908;2023-04-01T11:40:35;1.20;;;1.10;;
42036;SDS011;30340;52.004;5.908;2023-04-01T11:46:15;1.38;;;1.20;;
42036;SDS011;30340;52.004;5.908;2023-04-01T12:05:37;2.53;;;1.63;;
42036;SDS011;30340;52.004;5.908;2023-04-01T12:08:08;5.75;;;1.90;;
42036;SDS011;30340;52.004;5.908;2023-04-01T12:10:45;3.88;;;1.60;;
42036;SDS011;30340;52.004;5.908;2023-04-01T12:13:32;2.00;;;1.50;;
42036;SDS011;30340;52.004;5.908;2023-04-01T12:19:20;1.70;;;1.52;;
42036;SDS011;30340;52.004;5.908;2023-04-01T12:21:52;6.15;;;2.90;;
42036;SDS011;30340;52.004;5.908;2023-04-01T12:32:40;2.97;;;2.40;;
42036;SDS011;30340;52.004;5.908;2023-04-01T12:35:15;3.13;;;2.10;;
42036;SDS011;30340;52.004;5.908;2023-04-01T12:38:04;2.22;;;1.92;;
42036;SDS011;30340;52.004;5.908;2023-04-01T12:41:03;5.70;;;4.32;;
42036;SDS011;30340;52.004;5.908;2023-04-01T12:49:51;6.45;;;5.07;;
42036;SDS011;30340;52.004;5.908;2023-04-01T12:55:41;4.03;;;3.03;;
42036;SDS011;30340;52.004;5.908;2023-04-01T13:08:52;3.90;;;3.50;;
42036;SDS011;30340;52.004;5.908;2023-04-01T13:14:21;3.63;;;2.85;;
42036;SDS011;30340;52.004;5.908;2023-04-01T13:29:10;3.13;;;1.80;;
42036;SDS011;30340;52.004;5.908;2023-04-01T13:36:58;1.42;;;1.33;;
42036;SDS011;30340;52.004;5.908;2023-04-01T13:42:47;4.72;;;1.42;;
42036;SDS011;30340;52.004;5.908;2023-04-01T13:54:04;1.10;;;1.00;;
42036;SDS011;30340;52.004;5.908;2023-04-01T14:16:25;19.92;;;9.65;;
42036;SDS011;30340;52.004;5.908;2023-04-01T14:41:48;2.17;;;1.98;;
42036;SDS011;30340;52.004;5.908;2023-04-01T14:47:28;3.22;;;2.25;;
42036;SDS011;30340;52.004;5.908;2023-04-01T14:50:16;2.20;;;2.00;;
42036;SDS011;30340;52.004;5.908;2023-04-01T14:52:57;3.47;;;1.88;;
42036;SDS011;30340;52.004;5.908;2023-04-01T14:58:25;1.88;;;1.70;;
42036;SDS011;30340;52.004;5.908;2023-04-01T15:31:34;3.13;;;2.70;;
42036;SDS011;30340;52.004;5.908;2023-04-01T15:37:13;3.42;;;3.08;;
42036;SDS011;30340;52.004;5.908;2023-04-01T15:40:02;2.70;;;2.50;;
42036;SDS011;30340;52.004;5.908;2023-04-01T15:42:49;4.30;;;3.47;;
42036;SDS011;30340;52.004;5.908;2023-04-01T15:48:31;4.68;;;3.85;;
42036;SDS011;30340;52.004;5.908;2023-04-01T15:51:01;3.88;;;3.47;;
42036;SDS011;30340;52.004;5.908;2023-04-01T15:56:29;4.63;;;3.42;;
42036;SDS011;30340;52.004;5.908;2023-04-01T15:59:19;3.63;;;3.33;;
42036;SDS011;30340;52.004;5.908;2023-04-01T16:04:46;4.00;;;3.70;;
42036;SDS011;30340;52.004;5.908;2023-04-01T16:12:50;4.03;;;3.25;;
42036;SDS011;30340;52.004;5.908;2023-04-01T16:26:26;4.78;;;3.60;;
42036;SDS011;30340;52.004;5.908;2023-04-01T16:28:58;4.45;;;3.95;;
42036;SDS011;30340;52.004;5.908;2023-04-01T16:31:35;3.65;;;3.35;;
42036;SDS011;30340;52.004;5.908;2023-04-01T16:34:13;4.05;;;3.65;;
42036;SDS011;30340;52.004;5.908;2023-04-01T16:37:00;3.53;;;3.22;;
42036;SDS011;30340;52.004;5.908;2023-04-01T16:39:54;3.33;;;3.03;;
42036;SDS011;30340;52.004;5.908;2023-04-01T16:42:43;3.88;;;3.50;;
42036;SDS011;30340;52.004;5.908;2023-04-01T16:48:13;4.15;;;3.75;;
42036;SDS011;30340;52.004;5.908;2023-04-01T16:53:34;3.47;;;3.13;;
42036;SDS011;30340;52.004;5.908;2023-04-01T16:56:23;3.70;;;3.40;;
42036;SDS011;30340;52.004;5.908;2023-04-01T16:59:04;4.97;;;4.47;;
42036;SDS011;30340;52.004;5.908;2023-04-01T17:12:17;4.30;;;3.90;;
42036;SDS011;30340;52.004;5.908;2023-04-01T17:15:02;4.32;;;3.92;;
42036;SDS011;30340;52.004;5.908;2023-04-01T17:23:41;4.00;;;3.60;;
42036;SDS011;30340;52.004;5.908;2023-04-01T17:37:15;5.03;;;4.45;;
42036;SDS011;30340;52.004;5.908;2023-04-01T17:45:30;4.25;;;3.85;;
42036;SDS011;30340;52.004;5.908;2023-04-01T17:53:57;4.97;;;4.47;;
42036;SDS011;30340;52.004;5.908;2023-04-01T18:02:16;7.22;;;5.35;;
42036;SDS011;30340;52.004;5.908;2023-04-01T18:08:07;6.45;;;5.72;;
42036;SDS011;30340;52.004;5.908;2023-04-01T18:11:17;4.50;;;4.10;;
42036;SDS011;30340;52.004;5.908;2023-04-01T18:19:26;5.70;;;5.20;;
42036;SDS011;30340;52.004;5.908;2023-04-01T18:22:09;4.47;;;4.07;;
42036;SDS011;30340;52.004;5.908;2023-04-01T18:24:47;5.22;;;4.45;;
42036;SDS011;30340;52.004;5.908;2023-04-01T18:27:29;5.25;;;4.75;;
42036;SDS011;30340;52.004;5.908;2023-04-01T18:32:48;5.55;;;5.05;;
42036;SDS011;30340;52.004;5.908;2023-04-01T18:38:12;6.10;;;5.50;;
42036;SDS011;30340;52.004;5.908;2023-04-01T18:40:43;5.47;;;4.97;;
42036;SDS011;30340;52.004;5.908;2023-04-01T18:43:21;7.03;;;6.32;;
42036;SDS011;30340;52.004;5.908;2023-04-01T18:52:09;6.32;;;5.72;;
42036;SDS011;30340;52.004;5.908;2023-04-01T18:57:46;6.50;;;5.72;;
42036;SDS011;30340;52.004;5.908;2023-04-01T19:00:40;6.55;;;5.95;;
42036;SDS011;30340;52.004;5.908;2023-04-01T19:03:25;6.03;;;5.43;;
42036;SDS011;30340;52.004;5.908;2023-04-01T19:06:15;6.95;;;6.25;;
42036;SDS011;30340;52.004;5.908;2023-04-01T19:08:53;5.53;;;5.03;;
42036;SDS011;30340;52.004;5.908;2023-04-01T19:11:34;6.00;;;5.40;;
42036;SDS011;30340;52.004;5.908;2023-04-01T19:14:27;5.70;;;5.20;;
42036;SDS011;30340;52.004;5.908;2023-04-01T19:17:04;6.18;;;5.32;;
42036;SDS011;30340;52.004;5.908;2023-04-01T19:30:53;8.02;;;6.80;;
42036;SDS011;30340;52.004;5.908;2023-04-01T19:36:58;7.95;;;7.25;;
42036;SDS011;30340;52.004;5.908;2023-04-01T19:42:36;6.07;;;5.47;;
42036;SDS011;30340;52.004;5.908;2023-04-01T19:45:34;5.93;;;5.40;;
42036;SDS011;30340;52.004;5.908;2023-04-01T19:48:24;6.47;;;5.88;;
42036;SDS011;30340;52.004;5.908;2023-04-01T19:50:57;6.68;;;6.07;;
42036;SDS011;30340;52.004;5.908;2023-04-01T19:56:06;5.50;;;5.00;;
42036;SDS011;30340;52.004;5.908;2023-04-01T20:01:24;7.30;;;6.60;;
42036;SDS011;30340;52.004;5.908;2023-04-01T20:10:04;7.50;;;6.80;;
42036;SDS011;30340;52.004;5.908;2023-04-01T20:16:01;6.43;;;5.83;;
42036;SDS011;30340;52.004;5.908;2023-04-01T20:26:39;7.90;;;7.10;;
42036;SDS011;30340;52.004;5.908;2023-04-01T20:34:56;8.93;;;8.02;;
42036;SDS011;30340;52.004;5.908;2023-04-01T20:37:40;8.68;;;7.78;;
42036;SDS011;30340;52.004;5.908;2023-04-01T20:40:33;9.98;;;8.93;;
42036;SDS011;30340;52.004;5.908;2023-04-01T20:46:01;9.27;;;8.38;;
42036;SDS011;30340;52.004;5.908;2023-04-01T20:48:46;9.57;;;8.68;;
42036;SDS011;30340;52.004;5.908;2023-04-01T20:51:27;9.60;;;8.63;;
42036;SDS011;30340;52.004;5.908;2023-04-01T20:54:11;10.98;;;9.88;;
42036;SDS011;30340;52.004;5.908;2023-04-01T21:00:02;10.65;;;9.55;;
42036;SDS011;30340;52.004;5.908;2023-04-01T21:03:03;10.30;;;9.30;;
42036;SDS011;30340;52.004;5.908;2023-04-01T21:08:28;11.05;;;9.90;;
42036;SDS011;30340;52.004;5.908;2023-04-01T21:16:58;10.40;;;9.30;;
42036;SDS011;30340;52.004;5.908;2023-04-01T21:36:41;8.63;;;7.72;;
42036;SDS011;30340;52.004;5.908;2023-04-01T21:39:25;7.75;;;7.05;;
42036;SDS011;30340;52.004;5.908;2023-04-01T21:50:51;7.90;;;6.97;;
42036;SDS011;30340;52.004;5.908;2023-04-01T21:53:44;8.23;;;7.43;;
42036;SDS011;30340;52.004;5.908;2023-04-01T21:56:37;8.23;;;7.30;;
42036;SDS011;30340;52.004;5.908;2023-04-01T22:02:26;8.00;;;7.20;;
42036;SDS011;30340;52.004;5.908;2023-04-01T22:05:33;7.30;;;6.60;;
42036;SDS011;30340;52.004;5.908;2023-04-01T22:08:06;7.55;;;6.72;;
42036;SDS011;30340;52.004;5.908;2023-04-01T22:10:47;7.50;;;6.80;;
42036;SDS011;30340;52.004;5.908;2023-04-01T22:13:32;7.90;;;7.10;;
42036;SDS011;30340;52.004;5.908;2023-04-01T22:19:23;8.45;;;7.65;;
42036;SDS011;30340;52.004;5.908;2023-04-01T22:29:24;8.75;;;7.85;;
42036;SDS011;30340;52.004;5.908;2023-04-01T22:31:59;8.60;;;7.75;;
42036;SDS011;30340;52.004;5.908;2023-04-01T22:37:18;8.10;;;7.03;;
42036;SDS011;30340;52.004;5.908;2023-04-01T22:42:58;7.18;;;6.40;;
42036;SDS011;30340;52.004;5.908;2023-04-01T22:45:46;8.23;;;7.35;;
42036;SDS011;30340;52.004;5.908;2023-04-01T22:51:03;7.65;;;6.95;;
42036;SDS011;30340;52.004;5.908;2023-04-01T22:57:07;8.00;;;7.20;;
42036;SDS011;30340;52.004;5.908;2023-04-01T22:59:40;7.35;;;6.65;;
42036;SDS011;30340;52.004;5.908;2023-04-01T23:05:02;7.88;;;7.07;;
42036;SDS011;30340;52.004;5.908;2023-04-01T23:07:38;9.15;;;7.97;;
42036;SDS011;30340;52.004;5.908;2023-04-01T23:13:01;10.48;;;9.15;;
42036;SDS011;30340;52.004;5.908;2023-04-01T23:15:29;8.23;;;7.43;;
42036;SDS011;30340;52.004;5.908;2023-04-01T23:26:29;9.85;;;8.85;;
42036;SDS011;30340;52.004;5.908;2023-04-01T23:29:08;9.52;;;8.52;;
42036;SDS011;30340;52.004;5.908;2023-04-01T23:31:40;10.90;;;9.80;;
42036;SDS011;30340;52.004;5.908;2023-04-01T23:36:42;10.90;;;9.73;;
42036;SDS011;30340;52.004;5.908;2023-04-01T23:39:21;10.57;;;9.48;;
42036;SDS011;30340;52.004;5.908;2023-04-01T23:41:50;10.38;;;9.27;;
42036;SDS011;30340;52.004;5.908;2023-04-01T23:44:18;10.63;;;9.52;;
42036;SDS011;30340;52.004;5.908;2023-04-01T23:46:45;8.68;;;7.68;;
42036;SDS011;30340;52.004;5.908;2023-04-01T23:49:20;10.90;;;8.20;;
42036;SDS011;30340;52.004;5.908;2023-04-01T23:51:52;10.15;;;8.27;;
42036;SDS011;30340;52.004;5.908;2023-04-01T23:54:25;7.82;;;7.03;;
42036;SDS011;30340;52.004;5.908;2023-04-01T23:57:04;9.25;;;7.68;;
42036;SDS011;30340;52.004;5.908;2023-04-01T23:59:36;8.52;;;7.10;;
